createdAt,value
2023-11-12T00:00:33.868Z,10.50
2023-11-12T00:03:00.622Z,11.25
2023-11-12T00:05:27.119Z,12.00
2023-11-12T00:07:53.735Z,11.88
2023-11-12T00:10:21.257Z,11.27
2023-11-12T00:12:47.752Z,11.32
2023-11-12T00:15:14.303Z,11.90
2023-11-12T00:17:42.907Z,11.35
2023-11-12T00:20:13.772Z,12.88
2023-11-12T00:22:42.157Z,12.23
2023-11-12T00:25:11.457Z,12.02
2023-11-12T00:27:38.284Z,11.73
2023-11-12T00:30:05.407Z,11.35
2023-11-12T00:32:33.707Z,10.43
2023-11-12T00:35:00.305Z,11.02
2023-11-12T00:37:26.873Z,11.35
2023-11-12T00:39:53.502Z,12.30
2023-11-12T00:42:20.042Z,11.80
2023-11-12T00:44:47.075Z,12.13
2023-11-12T00:47:13.655Z,12.35
2023-11-12T00:49:40.142Z,12.05
2023-11-12T00:52:09.576Z,11.95
2023-11-12T00:54:36.336Z,11.73
2023-11-12T00:57:02.837Z,10.40
2023-11-12T00:59:29.340Z,12.40
2023-11-12T01:01:55.976Z,11.25
2023-11-12T01:04:24.349Z,11.18
2023-11-12T01:06:51.018Z,11.57
2023-11-12T01:09:17.535Z,11.45
2023-11-12T01:11:44.014Z,11.65
2023-11-12T01:14:10.536Z,11.65
2023-11-12T01:16:39.007Z,11.02
2023-11-12T01:19:06.402Z,10.83
2023-11-12T01:21:32.948Z,10.63
2023-11-12T01:23:59.421Z,10.50
2023-11-12T01:26:25.817Z,10.80
2023-11-12T01:28:52.379Z,10.60
2023-11-12T01:31:18.863Z,10.95
2023-11-12T01:33:46.010Z,10.57
2023-11-12T01:36:12.514Z,10.82
2023-11-12T01:38:39.045Z,10.75
2023-11-12T01:41:05.889Z,10.20
2023-11-12T01:43:32.514Z,10.25
2023-11-12T01:46:01.233Z,11.25
2023-11-12T01:48:27.902Z,11.35
2023-11-12T01:50:54.571Z,11.23
2023-11-12T01:53:21.097Z,10.65
2023-11-12T01:55:47.729Z,11.10
2023-11-12T01:58:14.591Z,11.07
2023-11-12T02:00:41.700Z,11.70
2023-11-12T02:03:10.408Z,11.60
2023-11-12T02:05:37.201Z,11.75
2023-11-12T02:08:06.402Z,12.15
2023-11-12T02:10:36.748Z,11.25
2023-11-12T02:13:03.642Z,11.95
2023-11-12T02:15:30.510Z,11.52
2023-11-12T02:17:58.613Z,11.80
2023-11-12T02:20:25.170Z,12.70
2023-11-12T02:22:51.717Z,11.82
2023-11-12T02:25:18.172Z,11.80
2023-11-12T02:27:46.075Z,11.02
2023-11-12T02:30:14.001Z,9.98
2023-11-12T02:32:42.007Z,10.80
2023-11-12T02:35:09.088Z,11.35
2023-11-12T02:37:36.795Z,11.15
2023-11-12T02:40:03.787Z,11.60
2023-11-12T02:42:30.740Z,11.15
2023-11-12T02:45:01.088Z,10.73
2023-11-12T02:47:28.379Z,10.52
2023-11-12T02:50:10.222Z,11.13
2023-11-12T02:52:36.787Z,10.20
2023-11-12T02:55:03.351Z,10.77
2023-11-12T02:57:29.938Z,11.18
2023-11-12T02:59:56.740Z,10.88
2023-11-12T03:02:26.055Z,10.13
2023-11-12T03:04:52.587Z,10.70
2023-11-12T03:07:22.004Z,11.23
2023-11-12T03:12:14.787Z,9.93
2023-11-12T03:14:42.513Z,9.75
2023-11-12T03:17:08.977Z,11.30
2023-11-12T03:19:36.084Z,10.77
2023-11-12T03:22:02.637Z,11.30
2023-11-12T03:24:29.137Z,11.65
2023-11-12T03:26:55.803Z,11.18
2023-11-12T03:29:24.307Z,11.70
2023-11-12T03:31:54.183Z,11.70
2023-11-12T03:34:21.235Z,11.23
2023-11-12T03:36:51.293Z,11.15
2023-11-12T03:39:18.771Z,10.32
2023-11-12T03:41:45.292Z,10.27
2023-11-12T03:44:11.817Z,10.35
2023-11-12T03:46:38.252Z,11.10
2023-11-12T03:49:06.053Z,10.35
2023-11-12T03:51:33.657Z,9.88
2023-11-12T03:54:03.289Z,10.57
2023-11-12T03:56:30.156Z,10.00
2023-11-12T03:58:59.548Z,9.90
2023-11-12T04:03:52.855Z,8.70
2023-11-12T04:06:19.657Z,9.32
2023-11-12T04:08:46.159Z,8.75
2023-11-12T04:11:13.485Z,10.38
2023-11-12T04:13:40.064Z,9.32
2023-11-12T04:16:07.236Z,8.55
2023-11-12T04:18:35.993Z,9.40
2023-11-12T04:21:03.562Z,9.75
2023-11-12T04:23:30.083Z,9.18
2023-11-12T04:25:56.572Z,9.57
2023-11-12T04:28:27.027Z,8.25
2023-11-12T04:30:54.193Z,8.73
2023-11-12T04:33:20.854Z,8.18
2023-11-12T04:35:50.899Z,8.32
2023-11-12T04:38:18.016Z,7.47
2023-11-12T04:40:44.961Z,7.05
2023-11-12T04:43:11.681Z,7.15
2023-11-12T04:45:38.265Z,7.00
2023-11-12T04:48:06.391Z,6.57
2023-11-12T04:50:32.897Z,7.00
2023-11-12T04:52:59.402Z,6.90
2023-11-12T04:55:25.851Z,6.55
2023-11-12T04:57:52.457Z,6.68
2023-11-12T05:00:19.016Z,7.68
2023-11-12T05:02:46.272Z,6.72
2023-11-12T05:05:13.168Z,7.55
2023-11-12T05:07:40.016Z,6.93
2023-11-12T05:10:09.289Z,6.20
2023-11-12T05:12:35.937Z,5.78
2023-11-12T05:15:02.512Z,6.38
2023-11-12T05:17:28.990Z,7.13
2023-11-12T05:19:55.525Z,6.30
2023-11-12T05:22:21.941Z,6.15
2023-11-12T05:24:52.445Z,5.88
2023-11-12T05:27:19.648Z,5.78
2023-11-12T05:29:46.125Z,5.93
2023-11-12T05:32:12.611Z,5.57
2023-11-12T05:34:39.038Z,5.30
2023-11-12T05:37:05.603Z,5.70
2023-11-12T05:39:32.808Z,5.78
2023-11-12T05:41:59.339Z,6.13
2023-11-12T05:44:25.810Z,6.47
2023-11-12T05:46:52.327Z,6.10
2023-11-12T05:49:18.766Z,6.72
2023-11-12T05:51:45.246Z,6.13
2023-11-12T05:54:11.806Z,6.20
2023-11-12T05:56:38.303Z,6.15
2023-11-12T05:59:04.712Z,6.20
2023-11-12T06:01:31.159Z,5.65
2023-11-12T06:03:59.785Z,5.57
2023-11-12T06:06:26.334Z,6.35
2023-11-12T06:08:52.959Z,5.90
2023-11-12T06:11:19.360Z,5.93
2023-11-12T06:13:45.826Z,5.45
2023-11-12T06:16:12.280Z,4.93
2023-11-12T06:18:38.757Z,5.05
2023-11-12T06:21:05.449Z,5.20
2023-11-12T06:23:31.889Z,4.90
2023-11-12T06:25:58.325Z,5.00
2023-11-12T06:28:25.357Z,5.50
2023-11-12T06:30:55.618Z,4.20
2023-11-12T06:33:22.668Z,5.80
2023-11-12T06:35:49.290Z,5.38
2023-11-12T06:38:15.741Z,5.47
2023-11-12T06:40:42.139Z,6.85
2023-11-12T06:43:08.697Z,7.05
2023-11-12T06:45:35.227Z,6.78
2023-11-12T06:48:01.798Z,5.78
2023-11-12T06:50:28.265Z,4.53
2023-11-12T06:52:56.230Z,5.63
2023-11-12T06:55:22.734Z,5.85
2023-11-12T06:57:49.309Z,4.40
2023-11-12T07:00:16.064Z,5.07
2023-11-12T07:02:42.671Z,5.88
2023-11-12T07:05:09.204Z,5.63
2023-11-12T07:07:35.871Z,6.03
2023-11-12T07:10:03.077Z,6.25
2023-11-12T07:12:31.154Z,5.82
2023-11-12T07:14:57.750Z,6.80
2023-11-12T07:17:24.267Z,6.18
2023-11-12T07:19:51.696Z,6.15
2023-11-12T07:22:18.133Z,7.18
2023-11-12T07:24:44.808Z,6.32
2023-11-12T07:27:11.234Z,6.95
2023-11-12T07:29:37.715Z,6.57
2023-11-12T07:32:04.363Z,6.90
2023-11-12T07:34:30.865Z,6.75
2023-11-12T07:36:57.488Z,6.63
2023-11-12T07:39:24.006Z,7.88
2023-11-12T07:41:50.508Z,7.65
2023-11-12T07:44:17.042Z,7.32
2023-11-12T07:46:43.781Z,6.78
2023-11-12T07:49:10.850Z,7.85
2023-11-12T07:51:37.381Z,6.95
2023-11-12T07:54:05.367Z,7.60
2023-11-12T07:56:39.275Z,6.93
2023-11-12T07:59:09.416Z,6.85
2023-11-12T08:01:36.532Z,6.57
2023-11-12T08:04:03.568Z,6.72
2023-11-12T08:06:30.255Z,7.28
2023-11-12T08:08:56.807Z,6.97
2023-11-12T08:11:23.249Z,7.10
2023-11-12T08:13:50.674Z,6.45
2023-11-12T08:16:17.234Z,6.38
2023-11-12T08:18:44.538Z,6.32
2023-11-12T08:21:11.157Z,5.55
2023-11-12T08:23:37.561Z,6.28
2023-11-12T08:26:04.733Z,6.07
2023-11-12T08:28:32.346Z,5.75
2023-11-12T08:30:59.051Z,5.65
2023-11-12T08:33:25.495Z,5.80
2023-11-12T08:35:53.601Z,5.60
2023-11-12T08:38:20.104Z,6.05
2023-11-12T08:40:46.789Z,6.35
2023-11-12T08:43:16.170Z,5.28
2023-11-12T08:48:09.190Z,5.68
2023-11-12T08:50:35.714Z,6.22
2023-11-12T08:53:03.072Z,6.25
2023-11-12T08:55:29.542Z,5.95
2023-11-12T08:57:56.171Z,5.88
2023-11-12T09:00:22.658Z,6.97
2023-11-12T09:02:49.210Z,7.43
2023-11-12T09:05:15.721Z,6.93
2023-11-12T09:07:42.877Z,6.20
2023-11-12T09:10:09.476Z,6.90
2023-11-12T09:12:36.121Z,6.50
2023-11-12T09:15:02.963Z,6.15
2023-11-12T09:17:29.455Z,6.57
2023-11-12T09:19:56.052Z,6.18
2023-11-12T09:22:22.489Z,6.68
2023-11-12T09:25:00.793Z,6.50
2023-11-12T09:27:35.739Z,5.93
2023-11-12T09:30:02.505Z,6.40
2023-11-12T09:32:29.576Z,6.25
2023-11-12T09:34:56.184Z,6.18
2023-11-12T09:37:22.683Z,5.63
2023-11-12T09:39:49.175Z,5.97
2023-11-12T09:42:20.409Z,5.85
2023-11-12T09:44:48.722Z,8.23
2023-11-12T09:47:15.184Z,7.63
2023-11-12T09:49:41.925Z,6.72
2023-11-12T09:52:08.486Z,6.03
2023-11-12T09:54:37.345Z,5.47
2023-11-12T09:57:09.196Z,4.80
2023-11-12T09:59:36.789Z,5.05
2023-11-12T10:02:05.489Z,4.93
2023-11-12T10:04:32.212Z,4.80
2023-11-12T10:06:59.164Z,5.50
2023-11-12T10:09:30.173Z,4.60
2023-11-12T10:12:05.941Z,4.90
2023-11-12T10:14:32.459Z,4.70
2023-11-12T10:17:06.724Z,4.40
2023-11-12T10:19:33.416Z,4.90
2023-11-12T10:22:01.350Z,5.13
2023-11-12T10:24:31.123Z,5.13
2023-11-12T10:27:01.386Z,5.90
2023-11-12T10:29:28.407Z,5.70
2023-11-12T10:31:55.588Z,6.00
2023-11-12T10:34:24.295Z,5.32
2023-11-12T10:37:09.262Z,5.47
2023-11-12T10:39:42.717Z,5.28
2023-11-12T10:42:28.215Z,5.53
2023-11-12T10:45:04.141Z,5.50
2023-11-12T10:47:31.374Z,5.38
2023-11-12T10:49:58.867Z,5.75
2023-11-12T10:52:27.506Z,5.90
2023-11-12T10:54:54.578Z,4.97
2023-11-12T10:57:24.547Z,5.75
2023-11-12T10:59:52.578Z,6.13
2023-11-12T11:02:23.608Z,5.47
2023-11-12T11:04:50.320Z,6.00
2023-11-12T11:07:17.528Z,5.68
2023-11-12T11:09:44.310Z,6.45
2023-11-12T11:12:11.637Z,5.25
2023-11-12T11:14:38.226Z,5.70
2023-11-12T11:17:09.561Z,5.70
2023-11-12T11:19:46.273Z,5.30
2023-11-12T11:22:33.366Z,5.32
2023-11-12T11:25:00.652Z,5.03
2023-11-12T11:27:27.340Z,5.32
2023-11-12T11:30:07.459Z,5.93
2023-11-12T11:32:34.178Z,4.82
2023-11-12T11:35:02.699Z,5.38
2023-11-12T11:37:48.032Z,5.00
2023-11-12T11:40:33.797Z,5.57
2023-11-12T11:43:19.022Z,5.85
2023-11-12T11:46:05.081Z,5.30
2023-11-12T11:48:31.662Z,5.22
2023-11-12T11:51:00.287Z,5.50
2023-11-12T11:53:29.010Z,5.75
2023-11-12T11:56:16.628Z,5.70
2023-11-12T11:58:46.143Z,4.97
2023-11-12T12:01:13.490Z,5.55
2023-11-12T12:03:40.057Z,5.60
2023-11-12T12:06:19.263Z,5.35
2023-11-12T12:08:52.422Z,5.18
2023-11-12T12:11:20.019Z,5.65
2023-11-12T12:14:06.041Z,5.05
2023-11-12T12:16:33.915Z,4.53
2023-11-12T12:19:00.973Z,5.55
2023-11-12T12:21:27.808Z,5.32
2023-11-12T12:23:54.642Z,4.60
2023-11-12T12:26:22.683Z,4.65
2023-11-12T12:28:49.157Z,5.35
2023-11-12T12:31:15.690Z,4.85
2023-11-12T12:33:42.157Z,5.03
2023-11-12T12:36:12.698Z,5.25
2023-11-12T12:38:55.764Z,4.70
2023-11-12T12:41:22.371Z,5.32
2023-11-12T12:43:51.968Z,4.90
2023-11-12T12:46:18.567Z,4.43
2023-11-12T12:48:53.997Z,4.68
2023-11-12T12:51:23.783Z,4.80
2023-11-12T12:53:51.458Z,4.88
2023-11-12T12:56:22.735Z,4.80
2023-11-12T12:58:49.335Z,4.07
2023-11-12T13:01:16.180Z,4.35
2023-11-12T13:03:46.345Z,3.90
2023-11-12T13:06:15.178Z,4.63
2023-11-12T13:08:42.202Z,4.45
2023-11-12T13:11:08.751Z,4.75
2023-11-12T13:13:36.120Z,4.82
2023-11-12T13:16:02.767Z,4.47
2023-11-12T13:18:30.534Z,4.80
2023-11-12T13:20:57.078Z,4.57
2023-11-12T13:23:25.026Z,4.45
2023-11-12T13:25:55.307Z,4.90
2023-11-12T13:28:22.501Z,3.92
2023-11-12T13:30:49.198Z,3.40
2023-11-12T13:33:16.395Z,3.67
2023-11-12T13:35:57.494Z,2.85
2023-11-12T13:38:25.062Z,2.47
2023-11-12T13:40:52.613Z,2.50
2023-11-12T13:43:20.219Z,2.78
2023-11-12T13:45:46.863Z,2.42
2023-11-12T13:48:14.086Z,1.83
2023-11-12T13:50:40.788Z,1.60
2023-11-12T13:53:13.086Z,1.52
2023-11-12T13:55:42.704Z,1.30
2023-11-12T13:58:12.832Z,1.40
2023-11-12T14:00:40.564Z,1.23
2023-11-12T14:03:07.317Z,1.35
2023-11-12T14:05:34.288Z,1.13
2023-11-12T14:08:13.207Z,1.17
2023-11-12T14:10:40.549Z,1.30
2023-11-12T14:13:11.538Z,0.90
2023-11-12T14:15:37.996Z,1.02
2023-11-12T14:18:05.994Z,1.00
2023-11-12T14:20:32.526Z,1.25
2023-11-12T14:23:02.985Z,0.90
2023-11-12T14:25:30.707Z,1.00
2023-11-12T14:27:59.533Z,0.90
2023-11-12T14:30:26.255Z,0.82
2023-11-12T14:32:53.139Z,0.70
2023-11-12T14:35:20.621Z,1.23
2023-11-12T14:37:48.841Z,1.05
2023-11-12T14:40:16.227Z,1.20
2023-11-12T14:42:42.900Z,1.05
2023-11-12T14:45:21.133Z,1.02
2023-11-12T14:47:54.694Z,1.40
2023-11-12T14:50:22.961Z,1.52
2023-11-12T14:52:52.133Z,1.40
2023-11-12T14:55:25.315Z,1.33
2023-11-12T14:57:56.068Z,1.67
2023-11-12T15:00:30.809Z,1.30
2023-11-12T15:02:58.754Z,1.52
2023-11-12T15:05:25.465Z,1.98
2023-11-12T15:07:52.438Z,2.20
2023-11-12T15:10:19.310Z,2.13
2023-11-12T15:12:46.562Z,5.68
2023-11-12T15:15:13.854Z,9.68
2023-11-12T15:17:40.651Z,6.30
2023-11-12T15:20:10.652Z,3.92
2023-11-12T15:22:37.838Z,3.55
2023-11-12T15:25:04.998Z,2.80
2023-11-12T15:27:31.515Z,1.60
2023-11-12T15:29:58.331Z,1.90
2023-11-12T15:32:24.895Z,1.77
2023-11-12T15:34:51.505Z,2.78
2023-11-12T15:37:20.460Z,1.65
2023-11-12T15:39:46.935Z,1.35
2023-11-12T15:42:13.801Z,1.20
2023-11-12T15:44:40.335Z,1.48
2023-11-12T15:47:06.849Z,1.02
2023-11-12T15:49:33.367Z,1.00
2023-11-12T15:52:01.297Z,1.10
2023-11-12T15:54:28.257Z,1.20
2023-11-12T15:56:54.799Z,1.17
2023-11-12T15:59:21.622Z,1.20
2023-11-12T16:01:48.316Z,0.98
2023-11-12T16:04:14.894Z,1.08
2023-11-12T16:06:41.568Z,0.77
2023-11-12T16:09:09.856Z,0.80
2023-11-12T16:11:37.045Z,1.08
2023-11-12T16:14:05.028Z,1.00
2023-11-12T16:16:31.631Z,1.05
2023-11-12T16:18:58.114Z,0.95
2023-11-12T16:21:24.700Z,1.02
2023-11-12T16:23:51.160Z,1.10
2023-11-12T16:26:18.813Z,1.17
2023-11-12T16:28:45.451Z,0.95
2023-11-12T16:31:12.026Z,1.13
2023-11-12T16:33:39.304Z,0.82
2023-11-12T16:36:06.167Z,0.98
2023-11-12T16:38:36.857Z,1.10
2023-11-12T16:41:03.331Z,1.08
2023-11-12T16:43:29.874Z,0.98
2023-11-12T16:45:59.417Z,1.30
2023-11-12T16:48:26.064Z,1.42
2023-11-12T16:50:53.222Z,1.05
2023-11-12T16:53:21.852Z,1.20
2023-11-12T16:55:48.842Z,1.60
2023-11-12T16:58:15.373Z,1.40
2023-11-12T17:00:42.176Z,1.20
2023-11-12T17:03:09.137Z,1.27
2023-11-12T17:05:35.782Z,1.40
2023-11-12T17:08:05.470Z,0.98
2023-11-12T17:10:32.008Z,1.08
2023-11-12T17:12:58.674Z,0.90
2023-11-12T17:15:25.248Z,0.93
2023-11-12T17:17:51.874Z,0.95
2023-11-12T17:20:18.846Z,1.20
2023-11-12T17:22:47.573Z,1.02
2023-11-12T17:25:14.343Z,1.10
2023-11-12T17:27:41.043Z,1.33
2023-11-12T17:30:07.812Z,1.38
2023-11-12T17:32:35.051Z,1.35
2023-11-12T17:35:02.145Z,1.27
2023-11-12T17:37:28.725Z,0.95
2023-11-12T17:39:55.197Z,1.25
2023-11-12T17:42:21.715Z,1.02
2023-11-12T17:44:48.290Z,1.02
2023-11-12T17:47:15.344Z,1.05
2023-11-12T17:49:42.358Z,1.25
2023-11-12T17:52:08.917Z,1.02
2023-11-12T17:54:35.927Z,1.08
2023-11-12T17:57:04.289Z,1.40
2023-11-12T17:59:31.387Z,1.23
2023-11-12T18:01:57.992Z,1.83
2023-11-12T18:04:25.467Z,2.40
2023-11-12T18:06:52.127Z,4.15
2023-11-12T18:09:20.055Z,3.80
2023-11-12T18:11:46.824Z,3.53
2023-11-12T18:14:19.156Z,3.10
2023-11-12T18:16:46.090Z,3.30
2023-11-12T18:19:16.379Z,2.92
2023-11-12T18:21:43.192Z,2.53
2023-11-12T18:24:10.060Z,2.42
2023-11-12T18:26:38.176Z,1.92
2023-11-12T18:29:04.969Z,1.23
2023-11-12T18:31:31.560Z,1.65
2023-11-12T18:33:58.213Z,1.98
2023-11-12T18:36:24.788Z,1.73
2023-11-12T18:38:51.329Z,1.50
2023-11-12T18:41:18.889Z,1.38
2023-11-12T18:43:48.103Z,1.20
2023-11-12T18:46:14.937Z,1.30
2023-11-12T18:48:41.773Z,1.35
2023-11-12T18:51:08.539Z,1.33
2023-11-12T18:53:35.029Z,1.17
2023-11-12T18:56:01.884Z,1.40
2023-11-12T18:58:28.350Z,1.30
2023-11-12T19:00:54.962Z,1.60
2023-11-12T19:03:21.724Z,1.42
2023-11-12T19:05:48.613Z,1.30
2023-11-12T19:08:18.023Z,1.40
2023-11-12T19:10:45.064Z,1.52
2023-11-12T19:13:11.799Z,1.40
2023-11-12T19:15:38.436Z,1.30
2023-11-12T19:18:07.882Z,1.52
2023-11-12T19:20:38.827Z,1.88
2023-11-12T19:23:06.341Z,1.65
2023-11-12T19:25:33.000Z,1.80
2023-11-12T19:28:00.833Z,1.90
2023-11-12T19:30:30.823Z,1.60
2023-11-12T19:32:59.961Z,1.83
2023-11-12T19:35:29.027Z,1.92
2023-11-12T19:37:56.264Z,1.85
2023-11-12T19:40:24.101Z,1.90
2023-11-12T19:42:50.960Z,2.00
2023-11-12T19:45:17.742Z,2.10
2023-11-12T19:47:44.361Z,2.05
2023-11-12T19:50:12.656Z,2.13
2023-11-12T19:52:39.325Z,2.13
2023-11-12T19:55:06.212Z,2.40
2023-11-12T19:57:32.852Z,2.20
2023-11-12T19:59:59.573Z,2.28
2023-11-12T20:02:27.849Z,2.42
2023-11-12T20:04:54.613Z,2.25
2023-11-12T20:07:21.113Z,1.95
2023-11-12T20:09:48.026Z,2.05
2023-11-12T20:12:14.589Z,2.60
2023-11-12T20:14:41.410Z,2.05
2023-11-12T20:17:11.919Z,2.55
2023-11-12T20:19:40.247Z,2.53
2023-11-12T20:22:07.226Z,2.65
2023-11-12T20:24:39.815Z,2.35
2023-11-12T20:27:10.069Z,2.17
2023-11-12T20:29:36.990Z,2.35
2023-11-12T20:32:03.945Z,2.17
2023-11-12T20:34:30.589Z,2.25
2023-11-12T20:36:57.297Z,2.15
2023-11-12T20:39:23.936Z,1.80
2023-11-12T20:41:51.799Z,2.03
2023-11-12T20:44:18.842Z,2.40
2023-11-12T20:46:46.618Z,2.20
2023-11-12T20:49:17.662Z,2.08
2023-11-12T20:51:48.506Z,2.10
2023-11-12T20:54:17.504Z,2.00
2023-11-12T20:56:44.075Z,2.28
2023-11-12T20:59:11.494Z,2.03
2023-11-12T21:01:38.783Z,2.60
2023-11-12T21:04:10.005Z,2.25
2023-11-12T21:06:48.794Z,2.35
2023-11-12T21:09:15.365Z,2.78
2023-11-12T21:11:47.160Z,2.45
2023-11-12T21:14:15.407Z,2.17
2023-11-12T21:16:42.417Z,2.40
2023-11-12T21:19:10.920Z,2.10
2023-11-12T21:21:39.857Z,2.10
2023-11-12T21:24:09.141Z,2.03
2023-11-12T21:29:03.348Z,2.00
2023-11-12T21:31:29.856Z,2.28
2023-11-12T21:33:56.462Z,2.05
2023-11-12T21:36:23.384Z,2.05
2023-11-12T21:38:49.892Z,2.40
2023-11-12T21:41:17.003Z,2.45
2023-11-12T21:43:43.601Z,2.00
2023-11-12T21:46:15.208Z,2.10
2023-11-12T21:48:41.916Z,2.50
2023-11-12T21:51:08.738Z,2.50
2023-11-12T21:53:37.027Z,2.22
2023-11-12T21:56:05.152Z,2.65
2023-11-12T21:58:32.093Z,3.20
2023-11-12T22:00:59.122Z,3.00
2023-11-12T22:03:27.565Z,2.80
2023-11-12T22:05:55.331Z,3.00
2023-11-12T22:08:22.769Z,3.17
2023-11-12T22:10:50.510Z,3.00
2023-11-12T22:13:19.449Z,3.40
2023-11-12T22:15:46.469Z,3.35
2023-11-12T22:18:13.095Z,2.95
2023-11-12T22:20:39.742Z,2.42
2023-11-12T22:23:06.374Z,2.75
2023-11-12T22:25:33.125Z,2.33
2023-11-12T22:27:59.675Z,2.25
2023-11-12T22:30:26.553Z,2.50
2023-11-12T22:32:54.817Z,2.15
2023-11-12T22:35:21.962Z,2.00
2023-11-12T22:37:48.800Z,2.40
2023-11-12T22:40:15.828Z,2.38
2023-11-12T22:42:42.676Z,2.65
2023-11-12T22:45:10.279Z,2.00
2023-11-12T22:47:37.222Z,2.15
2023-11-12T22:50:08.433Z,1.85
2023-11-12T22:52:35.285Z,1.88
2023-11-12T22:55:01.806Z,1.88
2023-11-12T22:57:31.277Z,2.03
2023-11-12T23:02:26.276Z,1.83
2023-11-12T23:04:52.904Z,2.53
2023-11-12T23:07:19.439Z,2.33
2023-11-12T23:09:46.223Z,2.28
2023-11-12T23:12:13.456Z,2.47
2023-11-12T23:14:40.522Z,2.13
2023-11-12T23:17:08.904Z,2.22
2023-11-12T23:19:35.728Z,2.30
2023-11-12T23:22:06.078Z,1.80
2023-11-12T23:24:32.628Z,1.95
2023-11-12T23:26:59.375Z,2.00
2023-11-12T23:29:25.930Z,2.00
2023-11-12T23:31:54.847Z,1.67
2023-11-12T23:34:21.545Z,1.80
2023-11-12T23:36:48.597Z,1.90
2023-11-12T23:39:15.166Z,1.77
2023-11-12T23:41:41.686Z,1.90
2023-11-12T23:44:08.204Z,2.03
2023-11-12T23:46:34.803Z,1.98
2023-11-12T23:49:02.113Z,2.00
2023-11-12T23:51:29.154Z,2.00
2023-11-12T23:53:55.706Z,2.42
2023-11-12T23:56:23.689Z,1.80
2023-11-12T23:58:50.282Z,1.90
